Time;durP1;ratioP1;P1;durP2;ratioP2;P2;SDS_P1;SDS_P2;PMS_P1;PMS_P2;Temp;Humidity;BMP_temperature;BMP_pressure;BME280_temperature;BME280_humidity;BME280_pressure;Samples;Min_cycle;Max_cycle;Signal;HPM_P1;HPM_P2
2023/07/03 00:02:32;;;;;;;8.50;3.40;;;;;;;15.61;100.00;99906.13;6135230;28;20046;-89
2023/07/03 00:05:35;;;;;;;5.00;3.33;;;;;;;15.52;100.00;99902.72;6149447;28;20161;-89
2023/07/03 00:08:36;;;;;;;7.28;3.22;;;;;;;15.52;100.00;99910.56;6140047;28;20050;-88
2023/07/03 00:11:38;;;;;;;8.10;3.50;;;;;;;15.51;100.00;99908.94;6138719;28;20070;-89
2023/07/03 00:14:40;;;;;;;6.70;3.30;;;;;;;15.56;100.00;99909.25;6137718;28;20058;-88
2023/07/03 00:17:47;;;;;;;9.00;3.80;;;;;;;15.64;100.00;99900.56;6140534;28;20031;-89
2023/07/03 00:20:54;;;;;;;7.05;3.38;;;;;;;15.67;100.00;99901.03;6128231;28;20925;-88
2023/07/03 00:23:56;;;;;;;9.52;3.58;;;;;;;15.68;100.00;99894.84;6140492;28;20043;-89
2023/07/03 00:26:58;;;;;;;11.73;4.15;;;;;;;15.54;100.00;99892.94;6133035;28;20505;-89
2023/07/03 00:30:00;;;;;;;9.20;3.60;;;;;;;15.44;100.00;99889.72;6138196;28;20058;-89
2023/07/03 00:33:01;;;;;;;5.68;3.08;;;;;;;15.37;100.00;99888.78;6137183;28;20051;-89
2023/07/03 00:36:03;;;;;;;8.48;3.85;;;;;;;15.40;100.00;99893.63;6124570;28;20058;-89
2023/07/03 00:39:06;;;;;;;7.65;3.60;;;;;;;15.42;100.00;99887.28;6137548;28;20048;-89
2023/07/03 00:42:08;;;;;;;7.65;4.00;;;;;;;15.47;100.00;99897.22;6136570;28;20051;-88
2023/07/03 00:45:10;;;;;;;9.07;3.40;;;;;;;15.48;100.00;99896.25;6139198;28;20395;-88
2023/07/03 00:48:12;;;;;;;6.20;3.55;;;;;;;15.41;100.00;99890.88;6138204;28;20047;-89
2023/07/03 00:51:15;;;;;;;10.93;3.85;;;;;;;15.36;100.00;99892.38;6133180;29;20058;-89
2023/07/03 00:54:18;;;;;;;8.65;3.28;;;;;;;15.28;100.00;99882.78;6137090;28;20856;-89
2023/07/03 00:57:23;;;;;;;9.35;3.70;;;;;;;15.16;100.00;99889.31;6146815;28;20193;-88
2023/07/03 01:00:32;;;;;;;10.52;3.85;;;;;;;15.06;100.00;99887.72;6143902;28;20043;-89
2023/07/03 01:03:40;;;;;;;7.53;3.88;;;;;;;14.96;100.00;99883.66;6151203;28;20406;-88
2023/07/03 01:06:54;;;;;;;8.27;3.50;;;;;;;14.84;100.00;99884.00;6139047;28;20833;-89
2023/07/03 01:09:59;;;;;;;7.45;3.67;;;;;;;14.76;100.00;99876.19;6155867;28;20055;-89
2023/07/03 01:13:06;;;;;;;9.43;3.95;;;;;;;14.75;100.00;99877.16;6136851;28;20146;-89
2023/07/03 01:16:09;;;;;;;8.25;3.72;;;;;;;14.83;100.00;99884.16;6137370;28;20513;-89
2023/07/03 01:19:30;;;;;;;8.98;3.47;;;;;;;15.09;100.00;99886.56;6137895;28;20472;-89
2023/07/03 01:23:00;;;;;;;9.57;3.55;;;;;;;15.28;100.00;99894.03;6129612;28;20118;-88
2023/07/03 01:26:04;;;;;;;6.87;3.90;;;;;;;15.29;100.00;99887.81;6149931;28;20051;-88
2023/07/03 01:29:07;;;;;;;9.60;3.22;;;;;;;15.28;100.00;99883.59;6135363;28;20043;-88
2023/07/03 01:32:11;;;;;;;9.25;4.35;;;;;;;15.32;100.00;99878.03;6112243;29;20574;-88
2023/07/03 01:35:15;;;;;;;8.57;3.58;;;;;;;15.31;100.00;99876.41;6130866;28;20070;-88
2023/07/03 01:38:19;;;;;;;7.07;3.80;;;;;;;15.27;100.00;99873.31;6136117;28;20047;-88
2023/07/03 01:41:20;;;;;;;8.73;3.67;;;;;;;15.19;100.00;99866.31;6137078;28;20048;-88
2023/07/03 01:44:22;;;;;;;12.27;3.70;;;;;;;15.25;100.00;99862.22;6134220;28;20133;-88
2023/07/03 01:47:24;;;;;;;8.35;3.50;;;;;;;15.30;100.00;99867.75;6137264;28;20072;-88
2023/07/03 01:50:29;;;;;;;10.60;4.10;;;;;;;15.35;100.00;99862.84;6136849;28;20565;-88
2023/07/03 01:53:39;;;;;;;12.52;3.55;;;;;;;15.36;100.00;99867.09;6143326;28;20066;-88
2023/07/03 01:56:45;;;;;;;11.40;4.10;;;;;;;15.48;100.00;99872.78;6141880;28;20222;-88
2023/07/03 01:59:51;;;;;;;10.07;4.57;;;;;;;15.47;100.00;99861.50;6154732;28;20531;-88
2023/07/03 02:02:57;;;;;;;12.20;4.40;;;;;;;15.51;100.00;99860.19;6151220;28;20073;-88
2023/07/03 02:06:05;;;;;;;11.73;4.45;;;;;;;15.55;100.00;99855.44;6139263;28;20047;-88
2023/07/03 02:09:08;;;;;;;9.98;3.47;;;;;;;15.60;100.00;99852.31;6152235;28;20113;-88
2023/07/03 02:12:14;;;;;;;9.85;3.90;;;;;;;15.55;100.00;99858.03;6144031;28;20433;-89
2023/07/03 02:15:17;;;;;;;10.52;4.15;;;;;;;15.51;100.00;99856.78;6135419;28;20050;-88
2023/07/03 02:18:20;;;;;;;8.32;3.83;;;;;;;15.45;100.00;99867.88;6144527;28;20496;-88
2023/07/03 02:21:22;;;;;;;9.30;4.03;;;;;;;15.52;100.00;99861.81;6118374;28;20078;-88
2023/07/03 02:24:25;;;;;;;8.57;3.50;;;;;;;15.56;100.00;99870.13;6138632;28;20641;-87
2023/07/03 02:27:26;;;;;;;11.45;4.30;;;;;;;15.63;100.00;99868.47;6126020;28;20054;-88
2023/07/03 02:30:28;;;;;;;10.00;4.20;;;;;;;15.62;100.00;99872.03;6128817;28;20046;-88
2023/07/03 02:33:30;;;;;;;8.02;4.10;;;;;;;15.62;100.00;99861.59;6134751;28;20074;-88
2023/07/03 02:36:39;;;;;;;11.63;4.10;;;;;;;15.65;100.00;99860.44;6138702;28;20761;-88
2023/07/03 02:39:41;;;;;;;12.27;4.60;;;;;;;15.58;100.00;99865.56;6145795;28;20034;-88
2023/07/03 02:42:45;;;;;;;8.15;4.00;;;;;;;15.58;100.00;99859.53;6144241;28;20051;-87
2023/07/03 02:45:46;;;;;;;10.95;4.32;;;;;;;15.44;100.00;99861.03;6139971;28;20046;-88
2023/07/03 02:48:50;;;;;;;10.85;4.60;;;;;;;15.28;100.00;99852.28;6137342;28;20035;-87
2023/07/03 02:51:52;;;;;;;13.80;4.00;;;;;;;15.22;100.00;99852.94;6138627;28;20103;-87
2023/07/03 02:54:53;;;;;;;13.23;4.10;;;;;;;15.27;100.00;99850.66;6140113;28;20529;-88
2023/07/03 02:57:57;;;;;;;12.00;4.20;;;;;;;15.34;100.00;99857.81;6146664;28;20739;-88
2023/07/03 03:01:02;;;;;;;12.85;4.05;;;;;;;15.46;100.00;99857.28;6146646;28;20054;-88
2023/07/03 03:04:04;;;;;;;10.63;3.83;;;;;;;15.52;100.00;99858.38;6135894;28;20182;-87
2023/07/03 03:07:06;;;;;;;13.98;4.30;;;;;;;15.52;100.00;99853.97;6147910;28;20074;-87
2023/07/03 03:10:08;;;;;;;13.82;4.22;;;;;;;15.55;100.00;99857.22;6146338;28;20044;-87
2023/07/03 03:13:10;;;;;;;12.05;4.40;;;;;;;15.50;100.00;99845.53;6140890;28;20191;-88
2023/07/03 03:16:12;;;;;;;12.88;4.57;;;;;;;15.46;100.00;99840.81;6141544;28;20403;-86
2023/07/03 03:19:14;;;;;;;11.93;4.60;;;;;;;15.35;100.00;99843.78;6144467;28;20186;-86
2023/07/03 03:22:16;;;;;;;14.48;4.82;;;;;;;15.31;100.00;99845.13;6154362;28;20053;-89
2023/07/03 03:25:18;;;;;;;11.05;4.55;;;;;;;15.28;100.00;99843.66;6143287;28;20046;-87
2023/07/03 03:28:20;;;;;;;10.93;3.78;;;;;;;15.19;100.00;99844.66;6141530;28;20137;-88
2023/07/03 03:31:22;;;;;;;9.23;4.35;;;;;;;15.13;100.00;99843.56;6132491;28;20058;-88
2023/07/03 03:34:29;;;;;;;10.48;4.35;;;;;;;15.08;100.00;99848.44;6139575;28;20083;-88
2023/07/03 03:37:31;;;;;;;11.35;4.05;;;;;;;15.08;100.00;99845.84;6137789;28;20043;-88
2023/07/03 03:40:35;;;;;;;8.52;4.10;;;;;;;15.01;100.00;99844.88;6141170;28;20077;-88
2023/07/03 03:43:39;;;;;;;10.35;4.43;;;;;;;14.88;100.00;99847.16;6137967;28;20144;-88
2023/07/03 03:46:41;;;;;;;13.35;4.60;;;;;;;14.81;100.00;99842.63;6143916;28;20604;-87
2023/07/03 03:49:44;;;;;;;16.98;4.68;;;;;;;14.82;100.00;99852.06;6144689;28;20046;-87
2023/07/03 03:52:46;;;;;;;15.38;4.75;;;;;;;14.80;100.00;99848.81;6139080;28;20502;-87
2023/07/03 03:55:49;;;;;;;11.68;4.85;;;;;;;14.68;100.00;99846.72;6139635;28;20421;-88
2023/07/03 03:58:52;;;;;;;8.23;3.70;;;;;;;14.70;100.00;99850.78;6148415;28;20363;-88
2023/07/03 04:01:54;;;;;;;14.20;5.75;;;;;;;14.68;100.00;99849.31;6148079;28;20066;-88
2023/07/03 04:04:56;;;;;;;12.15;4.82;;;;;;;14.82;100.00;99846.84;6139851;28;20066;-88
2023/07/03 04:07:58;;;;;;;17.20;4.93;;;;;;;15.21;100.00;99843.50;6146805;28;20454;-87
2023/07/03 04:10:59;;;;;;;9.68;4.43;;;;;;;15.50;100.00;99845.53;6140588;28;20047;-88
2023/07/03 04:14:02;;;;;;;11.50;4.53;;;;;;;15.61;100.00;99846.13;6143034;28;20040;-88
2023/07/03 04:17:05;;;;;;;9.95;4.72;;;;;;;15.72;100.00;99850.97;6142280;28;20101;-88
2023/07/03 04:20:07;;;;;;;11.15;5.50;;;;;;;15.85;100.00;99848.66;6144728;28;20040;-88
2023/07/03 04:23:09;;;;;;;9.55;4.35;;;;;;;15.74;100.00;99853.44;6139058;28;20351;-88
2023/07/03 04:26:11;;;;;;;8.20;4.05;;;;;;;15.44;100.00;99851.41;6141142;28;20039;-88
2023/07/03 04:29:13;;;;;;;15.52;4.60;;;;;;;15.45;100.00;99839.19;6141148;28;20494;-88
2023/07/03 04:32:14;;;;;;;15.82;4.10;;;;;;;15.40;100.00;99844.94;6140653;28;20553;-88
2023/07/03 04:35:16;;;;;;;11.88;4.53;;;;;;;15.43;100.00;99852.41;6141426;28;20070;-88
2023/07/03 04:38:18;;;;;;;10.95;3.90;;;;;;;15.44;100.00;99858.44;6141150;28;20544;-88
2023/07/03 04:41:22;;;;;;;9.07;4.13;;;;;;;15.35;100.00;99855.03;6139911;28;20054;-87
2023/07/03 04:44:24;;;;;;;10.93;4.30;;;;;;;15.19;100.00;99850.69;6139851;28;20043;-88
2023/07/03 04:47:25;;;;;;;11.68;4.00;;;;;;;15.01;100.00;99830.06;6141202;28;20039;-89
2023/07/03 04:50:29;;;;;;;12.10;4.70;;;;;;;14.85;100.00;99823.06;6140032;28;20118;-89
2023/07/03 04:53:39;;;;;;;11.98;4.18;;;;;;;14.92;100.00;99838.88;6154169;28;20501;-88
2023/07/03 04:56:44;;;;;;;11.45;3.80;;;;;;;14.99;100.00;99834.63;6143356;28;20478;-88
2023/07/03 04:59:48;;;;;;;11.98;3.60;;;;;;;15.03;100.00;99842.91;6141870;28;20052;-88
2023/07/03 05:02:51;;;;;;;12.85;4.57;;;;;;;15.18;100.00;99838.66;6138619;28;20054;-88
2023/07/03 05:05:53;;;;;;;14.68;4.05;;;;;;;15.38;100.00;99843.44;6140838;28;20418;-88
2023/07/03 05:08:55;;;;;;;11.60;4.32;;;;;;;15.64;100.00;99840.56;6152694;28;20168;-87
2023/07/03 05:11:57;;;;;;;12.10;4.35;;;;;;;15.84;100.00;99848.81;6139031;28;20064;-88
2023/07/03 05:14:59;;;;;;;15.50;4.00;;;;;;;16.06;100.00;99842.00;6140852;28;20405;-88
2023/07/03 05:18:01;;;;;;;15.52;4.30;;;;;;;16.13;100.00;99848.94;6140679;28;20555;-87
2023/07/03 05:21:06;;;;;;;15.15;4.57;;;;;;;16.22;100.00;99852.31;6138262;29;20089;-88
2023/07/03 05:24:08;;;;;;;11.20;3.50;;;;;;;16.31;100.00;99864.31;6146273;28;20121;-88
2023/07/03 05:27:09;;;;;;;8.52;3.40;;;;;;;16.39;100.00;99858.22;6142637;28;20051;-88
2023/07/03 05:30:12;;;;;;;15.82;4.13;;;;;;;16.45;100.00;99870.59;6149449;28;20039;-87
2023/07/03 05:33:15;;;;;;;14.43;3.80;;;;;;;16.51;100.00;99880.31;6149126;28;20070;-87
2023/07/03 05:36:17;;;;;;;12.45;4.40;;;;;;;16.49;100.00;99890.13;6144670;28;20073;-87
2023/07/03 05:39:20;;;;;;;12.75;3.60;;;;;;;16.48;100.00;99878.06;6143247;28;20059;-88
2023/07/03 05:42:23;;;;;;;9.52;3.22;;;;;;;16.47;100.00;99886.06;6142454;28;20130;-88
2023/07/03 05:45:25;;;;;;;11.27;3.70;;;;;;;16.43;100.00;99884.81;6134977;28;20134;-87
2023/07/03 05:48:27;;;;;;;11.52;3.60;;;;;;;16.36;100.00;99889.91;6149109;28;20412;-87
2023/07/03 05:51:29;;;;;;;13.73;3.55;;;;;;;16.41;100.00;99892.00;6150391;28;20046;-87
2023/07/03 05:54:31;;;;;;;14.13;3.53;;;;;;;16.49;100.00;99881.50;6135150;28;20043;-88
2023/07/03 05:57:32;;;;;;;11.57;4.15;;;;;;;16.51;100.00;99898.63;6142316;28;20337;-88
2023/07/03 06:00:36;;;;;;;11.75;3.70;;;;;;;16.51;100.00;99903.84;6135833;28;20043;-87
2023/07/03 06:03:42;;;;;;;9.77;3.92;;;;;;;16.60;100.00;99903.78;6134105;28;20050;-87
2023/07/03 06:06:44;;;;;;;10.23;3.30;;;;;;;16.71;100.00;99908.59;6134204;28;20040;-89
2023/07/03 06:09:46;;;;;;;12.00;3.30;;;;;;;16.78;100.00;99914.78;6138863;28;20047;-88
2023/07/03 06:12:48;;;;;;;14.60;3.85;;;;;;;16.73;100.00;99919.69;6136701;28;20043;-88
2023/07/03 06:15:50;;;;;;;11.98;3.28;;;;;;;16.69;100.00;99921.81;6142104;28;20047;-88
2023/07/03 06:18:52;;;;;;;9.02;3.30;;;;;;;16.69;100.00;99931.47;6140663;28;20068;-88
2023/07/03 06:21:54;;;;;;;10.90;3.70;;;;;;;16.70;100.00;99925.28;6139820;28;20101;-87
2023/07/03 06:24:56;;;;;;;11.40;3.33;;;;;;;16.87;100.00;99928.56;6130352;28;20498;-88
2023/07/03 06:27:59;;;;;;;13.52;3.42;;;;;;;16.99;100.00;99932.38;6137949;28;20039;-87
2023/07/03 06:31:00;;;;;;;10.73;3.53;;;;;;;17.12;100.00;99930.00;6126987;28;20039;-89
2023/07/03 06:34:03;;;;;;;6.72;3.08;;;;;;;17.15;100.00;99934.06;6133708;28;20378;-88
2023/07/03 06:37:06;;;;;;;12.85;3.40;;;;;;;17.12;100.00;99934.41;6130828;28;20044;-88
2023/07/03 06:40:10;;;;;;;10.25;3.08;;;;;;;17.11;100.00;99941.44;6123790;28;20050;-88
2023/07/03 06:43:12;;;;;;;14.80;4.30;;;;;;;17.16;100.00;99939.09;6136000;28;20051;-88
2023/07/03 06:46:15;;;;;;;8.77;3.17;;;;;;;17.29;100.00;99950.75;6122965;28;20043;-89
2023/07/03 06:49:18;;;;;;;13.75;3.47;;;;;;;17.31;100.00;99941.72;6130476;28;20031;-87
2023/07/03 06:52:19;;;;;;;11.75;3.03;;;;;;;17.34;100.00;99956.25;6133474;28;20406;-88
2023/07/03 06:55:21;;;;;;;8.48;3.30;;;;;;;17.40;100.00;99953.72;6132591;28;20047;-89
2023/07/03 06:58:24;;;;;;;12.63;3.28;;;;;;;17.55;100.00;99952.94;6130941;28;20040;-89
2023/07/03 07:01:28;;;;;;;12.45;3.33;;;;;;;17.67;100.00;99967.19;6136278;28;20048;-87
2023/07/03 07:04:30;;;;;;;13.95;3.60;;;;;;;17.76;100.00;99966.09;6140042;28;20074;-88
2023/07/03 07:07:32;;;;;;;19.80;4.00;;;;;;;17.77;100.00;99964.28;6132917;28;20126;-88
2023/07/03 07:10:38;;;;;;;15.35;4.13;;;;;;;17.67;100.00;99966.38;6137300;28;20047;-89
2023/07/03 07:13:44;;;;;;;14.10;3.63;;;;;;;17.58;100.00;99955.97;6140357;28;20094;-88
2023/07/03 07:16:46;;;;;;;10.15;3.47;;;;;;;17.61;100.00;99957.44;6139650;28;20051;-87
2023/07/03 07:19:47;;;;;;;17.05;4.65;;;;;;;17.63;100.00;99960.69;6139941;28;20421;-87
2023/07/03 07:22:49;;;;;;;11.13;4.15;;;;;;;17.67;100.00;99961.94;6144491;28;20128;-88
2023/07/03 07:25:53;;;;;;;14.80;3.75;;;;;;;17.70;100.00;99961.59;6140105;28;20403;-88
2023/07/03 07:29:03;;;;;;;11.52;4.53;;;;;;;17.56;100.00;99957.97;6135237;28;20055;-89
2023/07/03 07:32:05;;;;;;;13.38;4.00;;;;;;;17.48;100.00;99968.53;6134481;28;20048;-88
2023/07/03 07:35:08;;;;;;;11.40;4.10;;;;;;;17.30;100.00;99958.41;6125150;28;20339;-87
2023/07/03 07:38:13;;;;;;;17.95;4.53;;;;;;;17.03;100.00;99965.03;6141727;28;20117;-88
2023/07/03 07:41:15;;;;;;;12.93;4.80;;;;;;;16.79;100.00;99959.03;6135728;28;20097;-88
2023/07/03 07:44:18;;;;;;;20.00;5.15;;;;;;;16.72;100.00;99954.63;6132420;28;20463;-88
2023/07/03 07:47:19;;;;;;;13.43;4.13;;;;;;;16.91;100.00;99967.25;6135915;28;20039;-88
2023/07/03 07:50:23;;;;;;;14.18;4.50;;;;;;;17.02;100.00;99966.03;6139580;28;20042;-88
2023/07/03 07:53:26;;;;;;;13.85;5.43;;;;;;;17.01;100.00;99967.00;6133886;28;20062;-88
2023/07/03 07:56:28;;;;;;;13.25;4.57;;;;;;;17.06;100.00;99972.53;6147417;28;20045;-87
2023/07/03 07:59:35;;;;;;;12.98;5.03;;;;;;;17.16;100.00;99967.06;6131606;28;20046;-89
2023/07/03 08:02:37;;;;;;;11.20;4.65;;;;;;;17.52;100.00;99969.81;6140462;28;20370;-88
2023/07/03 08:05:42;;;;;;;10.00;4.60;;;;;;;17.73;100.00;99970.88;6135835;28;20043;-88
2023/07/03 08:08:44;;;;;;;16.42;4.72;;;;;;;18.02;100.00;99976.13;6134800;28;20383;-88
2023/07/03 08:11:46;;;;;;;13.65;4.95;;;;;;;18.32;100.00;99977.88;6138249;28;20146;-88
2023/07/03 08:14:48;;;;;;;15.65;5.00;;;;;;;18.48;100.00;99977.63;6141849;28;20046;-88
2023/07/03 08:17:50;;;;;;;14.02;5.50;;;;;;;18.33;100.00;99980.28;6137131;28;20507;-88
2023/07/03 08:20:53;;;;;;;17.40;4.50;;;;;;;18.34;100.00;99970.63;6140508;28;20043;-87
2023/07/03 08:23:55;;;;;;;13.02;5.25;;;;;;;18.36;100.00;99973.84;6140190;28;20125;-89
2023/07/03 08:26:57;;;;;;;16.13;5.43;;;;;;;18.67;100.00;99981.44;6140149;28;20621;-89
2023/07/03 08:29:59;;;;;;;20.00;6.03;;;;;;;18.95;100.00;99973.66;6139646;28;20043;-88
2023/07/03 08:33:01;;;;;;;14.20;5.57;;;;;;;19.03;100.00;99984.03;6134529;28;20485;-88
2023/07/03 08:36:04;;;;;;;15.45;5.47;;;;;;;19.20;100.00;99986.34;6138209;28;20031;-88
2023/07/03 08:39:09;;;;;;;14.32;5.43;;;;;;;19.48;100.00;99981.09;6137808;28;20501;-88
2023/07/03 08:42:28;;;;;;;16.20;5.13;;;;;;;19.70;100.00;99979.22;6132021;28;20046;-87
2023/07/03 08:45:48;;;;;;;14.00;5.80;;;;;;;19.76;100.00;99989.75;6134429;28;20047;-88
2023/07/03 08:48:55;;;;;;;14.00;5.60;;;;;;;19.86;100.00;99989.41;6128727;28;20055;-87
2023/07/03 08:51:59;;;;;;;17.60;5.70;;;;;;;20.00;100.00;99991.09;6137956;28;20051;-88
2023/07/03 08:55:06;;;;;;;17.63;5.25;;;;;;;19.83;100.00;99995.06;6139450;28;20070;-88
2023/07/03 08:58:09;;;;;;;9.50;4.75;;;;;;;19.88;100.00;99997.09;6133646;28;20047;-88
2023/07/03 09:01:41;;;;;;;13.20;5.35;;;;;;;19.94;100.00;99999.75;6134427;28;20524;-87
2023/07/03 09:05:02;;;;;;;10.55;5.18;;;;;;;19.95;100.00;99996.13;6153276;28;20073;-88
2023/07/03 09:08:10;;;;;;;9.23;4.47;;;;;;;19.77;100.00;99991.38;6131677;28;20395;-87
2023/07/03 09:11:15;;;;;;;14.65;5.10;;;;;;;19.62;100.00;100002.97;6127880;28;20035;-88
2023/07/03 09:14:22;;;;;;;12.85;5.75;;;;;;;19.36;100.00;100007.06;6142037;28;20121;-88
2023/07/03 09:17:26;;;;;;;14.00;5.35;;;;;;;19.22;100.00;100002.72;6136182;28;20130;-89
2023/07/03 09:20:31;;;;;;;16.75;5.10;;;;;;;19.27;100.00;100001.13;6136746;28;20042;-88
2023/07/03 09:23:48;;;;;;;15.93;4.97;;;;;;;19.74;100.00;100002.28;6139114;28;20402;-88
2023/07/03 09:27:09;;;;;;;12.60;4.75;;;;;;;20.18;100.00;100008.16;6137602;28;20042;-88
2023/07/03 09:30:13;;;;;;;14.35;5.65;;;;;;;20.30;100.00;100009.19;6135129;28;20397;-87
2023/07/03 09:33:16;;;;;;;14.80;5.13;;;;;;;20.04;100.00;100002.00;6137908;28;20046;-88
2023/07/03 09:36:35;;;;;;;11.55;4.22;;;;;;;19.91;100.00;100000.13;6122028;28;20119;-88
2023/07/03 09:39:37;;;;;;;12.75;4.30;;;;;;;20.10;100.00;100006.50;6132460;28;20051;-87
2023/07/03 09:42:40;;;;;;;8.90;4.85;;;;;;;20.49;100.00;100009.44;6136806;28;20141;-88
2023/07/03 09:45:42;;;;;;;11.23;4.40;;;;;;;20.66;100.00;100010.72;6128075;28;20047;-87
2023/07/03 09:48:48;;;;;;;15.73;4.43;;;;;;;20.69;100.00;100012.13;6137610;28;20043;-87
2023/07/03 09:51:51;;;;;;;13.10;3.95;;;;;;;20.72;100.00;100012.56;6139716;28;20058;-87
2023/07/03 09:54:58;;;;;;;13.00;4.70;;;;;;;20.27;100.00;100014.03;6139798;28;20047;-86
2023/07/03 09:58:11;;;;;;;18.30;4.68;;;;;;;19.75;100.00;100021.47;6132070;28;20408;-87
2023/07/03 10:01:17;;;;;;;12.40;4.50;;;;;;;19.56;100.00;100012.44;6142779;28;20039;-87
2023/07/03 10:04:22;;;;;;;13.32;4.30;;;;;;;19.67;100.00;100018.97;6135542;28;20043;-87
2023/07/03 10:07:33;;;;;;;15.57;4.45;;;;;;;19.64;100.00;100027.25;6139229;28;20039;-88
2023/07/03 10:10:35;;;;;;;10.15;3.97;;;;;;;19.43;100.00;100028.94;6141278;28;20047;-88
2023/07/03 10:13:51;;;;;;;10.68;4.45;;;;;;;19.07;100.00;100032.47;6139003;28;20552;-88
2023/07/03 10:16:54;;;;;;;8.13;3.80;;;;;;;18.54;100.00;100055.53;6140523;28;20040;-87
2023/07/03 10:20:03;;;;;;;14.07;4.68;;;;;;;17.43;100.00;100052.78;6140444;28;20043;-86
2023/07/03 10:23:08;;;;;;;10.57;4.63;;;;;;;16.56;100.00;100054.88;6150305;28;20047;-87
2023/07/03 10:26:26;;;;;;;11.93;5.32;;;;;;;16.22;100.00;100055.19;6151758;28;20047;-88
2023/07/03 10:29:40;;;;;;;14.25;5.10;;;;;;;16.07;100.00;100055.06;6130108;28;20135;-87
2023/07/03 10:32:47;;;;;;;13.07;4.65;;;;;;;16.26;100.00;100066.94;6135581;28;20039;-87
2023/07/03 10:35:51;;;;;;;11.60;4.80;;;;;;;16.64;100.00;100067.88;6135033;28;20126;-87
2023/07/03 10:39:04;;;;;;;16.50;5.00;;;;;;;17.25;100.00;100065.38;6139754;28;20039;-86
2023/07/03 10:42:12;;;;;;;12.48;4.55;;;;;;;18.00;100.00;100054.06;6131318;28;20650;-86
2023/07/03 10:45:14;;;;;;;14.38;4.60;;;;;;;18.33;100.00;100061.50;6142226;28;20497;-86
2023/07/03 10:48:21;;;;;;;13.90;4.50;;;;;;;18.32;100.00;100064.34;6138392;28;20483;-86
2023/07/03 10:52:07;;;;;;;9.60;4.07;;;;;;;18.47;100.00;100050.19;6135230;28;20043;-86
2023/07/03 10:55:22;;;;;;;11.25;4.20;;;;;;;18.69;100.00;100047.63;6063327;29;20076;-86
2023/07/03 10:58:45;;;;;;;10.95;4.00;;;;;;;19.18;100.00;100053.94;6064466;29;20139;-86
2023/07/03 11:02:22;;;;;;;12.77;3.72;;;;;;;19.83;100.00;100042.34;6063685;29;20101;-86
2023/07/03 11:05:31;;;;;;;13.50;3.70;;;;;;;20.48;100.00;100034.13;6065925;29;20045;-87
2023/07/03 11:08:51;;;;;;;11.77;4.13;;;;;;;20.55;100.00;100032.34;6061397;29;20073;-87
2023/07/03 11:12:16;;;;;;;9.13;3.95;;;;;;;20.52;100.00;100030.06;6063547;29;20090;-86
2023/07/03 11:15:40;;;;;;;6.75;3.17;;;;;;;20.26;100.00;100018.47;6062905;29;20494;-86
2023/07/03 11:19:06;;;;;;;7.55;3.13;;;;;;;20.70;100.00;100037.44;6063118;29;20495;-86
2023/07/03 11:22:41;;;;;;;9.10;3.25;;;;;;;21.41;100.00;100024.53;6063993;29;20499;-86
2023/07/03 11:25:55;;;;;;;10.23;2.90;;;;;;;21.86;100.00;100031.72;6071376;29;20469;-86
2023/07/03 11:29:03;;;;;;;9.43;3.53;;;;;;;22.08;100.00;100032.28;6063193;29;20184;-87
2023/07/03 11:32:08;;;;;;;6.82;3.10;;;;;;;22.24;100.00;100036.31;6064918;29;20048;-87
2023/07/03 11:35:13;;;;;;;8.85;3.10;;;;;;;22.51;100.00;100040.44;6063361;29;20056;-87
2023/07/03 11:38:19;;;;;;;8.70;3.25;;;;;;;22.35;100.00;100031.16;6062648;29;20056;-87
2023/07/03 11:41:43;;;;;;;5.28;2.75;;;;;;;22.25;100.00;100027.38;6064706;29;20044;-88
2023/07/03 11:44:57;;;;;;;9.00;3.40;;;;;;;21.97;100.00;100028.47;6063437;29;20150;-87
2023/07/03 11:47:58;;;;;;;9.02;3.75;;;;;;;21.97;100.00;100028.47;6062812;29;20123;-87
2023/07/03 11:51:03;;;;;;;8.30;3.20;;;;;;;22.03;100.00;100022.34;6072695;28;20194;-88
2023/07/03 11:54:24;;;;;;;8.88;2.85;;;;;;;22.06;100.00;100040.41;6134962;28;20614;-88
2023/07/03 11:57:36;;;;;;;8.27;2.67;;;;;;;22.01;100.00;100042.03;6128511;28;20047;-88
2023/07/03 12:00:38;;;;;;;5.85;2.80;;;;;;;21.75;100.00;100037.66;6136677;28;20184;-88
2023/07/03 12:03:52;;;;;;;6.95;2.45;;;;;;;21.71;100.00;100032.81;6136485;28;20146;-88
2023/07/03 12:06:54;;;;;;;8.55;3.00;;;;;;;21.50;100.00;100033.84;6129450;28;20121;-87
2023/07/03 12:10:20;;;;;;;10.82;3.00;;;;;;;21.65;100.00;100027.53;6136010;28;20058;-87
2023/07/03 12:13:41;;;;;;;8.88;2.50;;;;;;;21.62;100.00;100041.13;6142063;28;20045;-87
2023/07/03 12:16:47;;;;;;;5.53;3.28;;;;;;;21.83;100.00;100042.69;6140148;28;20108;-87
2023/07/03 12:19:55;;;;;;;7.65;2.70;;;;;;;21.92;100.00;100044.09;6136397;28;20046;-87
2023/07/03 12:22:57;;;;;;;9.65;2.72;;;;;;;22.04;100.00;100049.53;6136513;28;20496;-87
2023/07/03 12:26:06;;;;;;;6.68;2.83;;;;;;;22.17;100.00;100053.94;6137523;28;20323;-88
2023/07/03 12:29:10;;;;;;;;;;;;;;;21.93;100.00;100037.78;6138823;28;20626;-87
2023/07/03 12:32:12;;;;;;;8.02;3.00;;;;;;;21.75;100.00;100042.94;6135368;28;19996;-87
2023/07/03 12:35:24;;;;;;;7.53;2.83;;;;;;;22.07;100.00;100043.84;6136201;28;20050;-88
2023/07/03 12:38:27;;;;;;;9.70;3.35;;;;;;;22.64;100.00;100044.00;6134998;28;20039;-89
2023/07/03 12:41:30;;;;;;;7.78;2.92;;;;;;;23.03;100.00;100039.50;6138009;28;20054;-88
2023/07/03 12:44:32;;;;;;;8.45;3.03;;;;;;;23.39;100.00;100052.81;6133767;28;20054;-88
2023/07/03 12:47:34;;;;;;;12.38;3.35;;;;;;;23.64;100.00;100051.97;6135523;28;20048;-89
2023/07/03 12:50:45;;;;;;;8.40;2.65;;;;;;;23.56;100.00;100053.06;6135014;28;20047;-88
2023/07/03 12:53:47;;;;;;;9.02;3.17;;;;;;;23.04;100.00;100055.13;6127214;28;20050;-88
2023/07/03 12:56:51;;;;;;;11.88;3.10;;;;;;;22.59;100.00;100057.84;6135571;28;20050;-87
2023/07/03 12:59:54;;;;;;;6.78;3.15;;;;;;;22.83;100.00;100055.44;6141774;28;20521;-88
2023/07/03 13:02:58;;;;;;;8.52;3.33;;;;;;;22.93;100.00;100051.34;6136739;28;20272;-88
2023/07/03 13:06:00;;;;;;;9.63;2.65;;;;;;;22.68;100.00;100067.13;6135443;28;20043;-87
2023/07/03 13:09:03;;;;;;;8.38;2.60;;;;;;;22.11;100.00;100061.69;6134165;28;20046;-87
2023/07/03 13:12:25;;;;;;;7.20;2.65;;;;;;;21.85;100.00;100067.81;6142996;28;20032;-88
2023/07/03 13:15:34;;;;;;;9.60;2.78;;;;;;;21.47;100.00;100080.84;6136606;28;20039;-87
2023/07/03 13:18:36;;;;;;;6.60;2.65;;;;;;;21.25;100.00;100077.59;6139617;28;20773;-87
2023/07/03 13:21:39;;;;;;;10.43;3.30;;;;;;;21.07;100.00;100076.34;6134347;28;20576;-88
2023/07/03 13:24:46;;;;;;;8.48;2.78;;;;;;;20.96;100.00;100087.47;6140822;28;20043;-88
2023/07/03 13:27:48;;;;;;;8.13;2.55;;;;;;;20.75;100.00;100093.69;6138926;28;20042;-88
2023/07/03 13:31:19;;;;;;;7.03;2.60;;;;;;;20.57;100.00;100085.53;6130969;28;20486;-89
2023/07/03 13:34:23;;;;;;;10.93;2.63;;;;;;;20.47;100.00;100088.53;6153557;28;20526;-88
2023/07/03 13:37:27;;;;;;;7.32;2.88;;;;;;;20.37;100.00;100091.53;6138334;28;20174;-88
2023/07/03 13:40:29;;;;;;;8.93;3.20;;;;;;;20.49;100.00;100088.31;6136953;28;20506;-88
2023/07/03 13:43:32;;;;;;;10.73;3.20;;;;;;;21.17;100.00;100081.22;6133157;28;20051;-87
2023/07/03 13:46:35;;;;;;;8.70;3.78;;;;;;;21.91;100.00;100079.34;6138917;28;20050;-88
2023/07/03 13:49:37;;;;;;;8.30;3.35;;;;;;;22.31;100.00;100074.81;6126163;28;20402;-88
2023/07/03 13:52:39;;;;;;;9.20;2.95;;;;;;;22.40;100.00;100075.38;6142805;28;20070;-87
2023/07/03 13:55:41;;;;;;;8.95;3.03;;;;;;;22.09;100.00;100068.97;6139690;28;20493;-87
2023/07/03 13:58:44;;;;;;;6.32;2.83;;;;;;;22.20;100.00;100074.66;6145063;28;20103;-88
2023/07/03 14:01:47;;;;;;;9.00;3.28;;;;;;;22.19;100.00;100071.19;6139766;28;20070;-88
2023/07/03 14:04:48;;;;;;;9.25;3.30;;;;;;;22.11;100.00;100074.03;6138218;28;20474;-88
2023/07/03 14:07:50;;;;;;;8.18;3.80;;;;;;;22.02;100.00;100070.81;6138849;28;20038;-89
2023/07/03 14:10:52;;;;;;;13.75;2.85;;;;;;;21.90;100.00;100072.47;6137818;28;20043;-89
2023/07/03 14:13:55;;;;;;;7.93;3.05;;;;;;;21.73;100.00;100065.00;6141366;28;20079;-86